Time;durP1;ratioP1;P1;durP2;ratioP2;P2;SDS_P1;SDS_P2;PMS_P1;PMS_P2;Temp;Humidity;BMP_temperature;BMP_pressure;BME280_temperature;BME280_humidity;BME280_pressure;Samples;Min_cycle;Max_cycle;Signal;HPM_P1;HPM_P2
2023/02/04 00:01:50;;;;;;;13.00;6.60;;;;;;;4.09;68.35;100327.11;107821;1292;22003;-67
2023/02/04 00:04:16;;;;;;;14.00;7.80;;;;;;;4.13;68.59;100324.03;107832;1292;22006;-61
2023/02/04 00:06:42;;;;;;;13.30;6.60;;;;;;;4.18;68.64;100321.15;107827;1292;22013;-61
2023/02/04 00:09:08;;;;;;;19.80;9.80;;;;;;;4.23;68.75;100320.67;107788;1292;22037;-61
2023/02/04 00:11:36;;;;;;;43.50;18.20;;;;;;;4.27;68.46;100319.34;108054;1292;21996;-66
2023/02/04 00:14:02;;;;;;;37.50;18.50;;;;;;;4.30;68.30;100324.59;106984;1292;1002386;-62
2023/02/04 00:16:28;;;;;;;21.70;9.90;;;;;;;4.29;67.77;100322.65;107793;1285;22140;-62
2023/02/04 00:18:54;;;;;;;13.30;7.40;;;;;;;4.25;67.04;100325.91;107913;1285;22004;-61
2023/02/04 00:21:20;;;;;;;17.20;10.30;;;;;;;4.17;66.52;100320.09;107902;1292;21992;-67
2023/02/04 00:23:45;;;;;;;13.50;8.40;;;;;;;4.12;66.48;100318.64;107773;1292;21989;-62
2023/02/04 00:26:11;;;;;;;14.90;9.00;;;;;;;4.11;66.68;100317.58;107759;1292;21994;-61
2023/02/04 00:28:37;;;;;;;14.90;8.90;;;;;;;4.12;66.86;100312.21;107716;1292;22096;-62
2023/02/04 00:31:03;;;;;;;43.10;16.90;;;;;;;4.11;66.48;100305.07;106976;1292;1002405;-63
2023/02/04 00:33:29;;;;;;;38.50;14.40;;;;;;;4.10;66.36;100303.15;107800;1292;23072;-62
2023/02/04 00:35:55;;;;;;;39.10;14.00;;;;;;;4.10;66.27;100298.11;107655;1289;22011;-67
2023/02/04 00:38:21;;;;;;;31.20;12.10;;;;;;;4.12;65.96;100293.45;107758;1291;22003;-62
2023/02/04 00:40:48;;;;;;;25.70;12.60;;;;;;;4.13;65.61;100290.86;107645;1291;21997;-68
2023/02/04 00:43:14;;;;;;;25.20;11.50;;;;;;;4.13;65.51;100284.95;107689;1286;21997;-62
2023/02/04 00:45:39;;;;;;;31.80;13.20;;;;;;;4.11;65.38;100279.20;107580;1291;21990;-61
2023/02/04 00:48:05;;;;;;;29.20;13.90;;;;;;;4.19;65.34;100276.69;107600;1289;21995;-67
2023/02/04 00:50:38;;;;;;;30.40;14.10;;;;;;;4.31;64.24;100275.27;107596;1291;22002;-67
2023/02/04 00:53:05;;;;;;;27.20;12.90;;;;;;;4.30;63.84;100267.27;107620;1289;22000;-66
2023/02/04 00:55:31;;;;;;;23.40;11.20;;;;;;;4.28;63.69;100264.98;107645;1291;21992;-67
2023/02/04 00:57:57;;;;;;;26.10;13.00;;;;;;;4.26;63.42;100263.39;107753;1291;21993;-65
2023/02/04 01:00:23;;;;;;;29.40;12.40;;;;;;;4.24;63.26;100260.94;107624;1291;22094;-66
2023/02/04 01:02:49;;;;;;;37.60;14.60;;;;;;;4.20;63.26;100258.80;107739;1291;22050;-67
2023/02/04 01:05:14;;;;;;;38.10;16.50;;;;;;;4.17;63.01;100253.23;107630;1290;22027;-62
2023/02/04 01:07:41;;;;;;;35.00;15.60;;;;;;;4.12;62.69;100249.35;106959;1290;1002559;-61
2023/02/04 01:10:08;;;;;;;31.50;14.60;;;;;;;4.05;62.51;100247.17;107663;1290;21984;-66
2023/02/04 01:12:35;;;;;;;25.30;12.30;;;;;;;3.97;62.35;100248.65;106907;1290;1002571;-66
2023/02/04 01:15:01;;;;;;;20.90;10.40;;;;;;;3.90;62.23;100250.29;107728;1290;22007;-66
2023/02/04 01:17:31;;;;;;;19.10;9.20;;;;;;;3.80;62.01;100250.85;107826;1290;21998;-66
2023/02/04 01:19:56;;;;;;;17.80;9.10;;;;;;;3.74;62.01;100249.39;106949;1290;1002620;-66
2023/02/04 01:22:22;;;;;;;17.30;8.90;;;;;;;3.69;61.87;100251.41;107736;1290;22001;-61
2023/02/04 01:24:49;;;;;;;17.50;10.00;;;;;;;3.63;61.60;100250.96;107647;1286;22027;-67
2023/02/04 01:27:15;;;;;;;17.90;9.70;;;;;;;3.62;61.35;100250.95;107759;1290;21992;-61
2023/02/04 01:29:41;;;;;;;18.30;9.80;;;;;;;3.61;61.05;100250.07;107732;1290;22455;-63
2023/02/04 01:32:07;;;;;;;16.10;8.70;;;;;;;3.59;61.35;100248.48;108010;1290;22113;-66
2023/02/04 01:34:34;;;;;;;19.70;9.60;;;;;;;3.59;61.36;100246.92;107970;1291;22009;-67
2023/02/04 01:37:01;;;;;;;17.50;9.10;;;;;;;3.58;61.46;100243.09;107316;1289;1002715;-65
2023/02/04 01:39:26;;;;;;;16.40;8.50;;;;;;;3.58;61.62;100240.66;107938;1291;22002;-66
2023/02/04 01:41:52;;;;;;;17.00;8.80;;;;;;;3.56;61.34;100238.89;107273;1290;1002556;-61
2023/02/04 01:44:18;;;;;;;15.10;8.90;;;;;;;3.51;61.06;100236.07;107046;1290;1006662;-63
2023/02/04 01:46:44;;;;;;;16.70;8.40;;;;;;;3.49;61.02;100236.90;107919;1290;22006;-65
2023/02/04 01:49:10;;;;;;;14.70;8.70;;;;;;;3.47;61.06;100233.92;107857;1290;22003;-64
2023/02/04 01:51:36;;;;;;;16.10;9.10;;;;;;;3.48;61.22;100231.15;107793;1290;21990;-66
2023/02/04 01:54:02;;;;;;;15.30;8.50;;;;;;;3.47;61.06;100226.98;107695;1290;21981;-61
2023/02/04 01:56:28;;;;;;;14.50;7.90;;;;;;;3.46;61.08;100224.01;107937;1290;21994;-66
2023/02/04 01:58:54;;;;;;;16.20;9.10;;;;;;;3.45;61.04;100222.27;108052;1290;21993;-62
2023/02/04 02:01:40;;;;;;;16.70;8.60;;;;;;;3.45;61.29;100222.95;108010;1284;24179;-65
2023/02/04 02:04:08;;;;;;;17.20;9.80;;;;;;;3.48;61.41;100223.00;107872;1291;21984;-61
2023/02/04 02:06:35;;;;;;;18.40;9.70;;;;;;;3.49;61.43;100217.64;107984;1291;24667;-62
2023/02/04 02:09:01;;;;;;;18.20;9.30;;;;;;;3.49;61.28;100215.73;107960;1291;21963;-66
2023/02/04 02:11:27;;;;;;;17.40;9.10;;;;;;;3.49;61.43;100219.37;107825;1290;21996;-63
2023/02/04 02:13:55;;;;;;;16.30;9.00;;;;;;;3.48;61.37;100219.02;107820;1290;21991;-65
2023/02/04 02:16:21;;;;;;;18.30;9.80;;;;;;;3.48;61.51;100218.30;107963;1290;22000;-61
2023/02/04 02:18:48;;;;;;;16.30;8.60;;;;;;;3.49;61.62;100217.13;108001;1290;21998;-61
2023/02/04 02:21:13;;;;;;;13.30;7.60;;;;;;;3.51;61.61;100215.77;108043;1290;21994;-61
2023/02/04 02:23:45;;;;;;;11.80;7.20;;;;;;;3.53;61.45;100211.62;107951;1290;22455;-65
2023/02/04 02:26:12;;;;;;;14.00;7.90;;;;;;;3.52;61.16;100209.36;107872;1290;21986;-66
2023/02/04 02:28:38;;;;;;;13.50;7.50;;;;;;;3.48;60.72;100209.13;107772;1290;21991;-61
2023/02/04 02:31:04;;;;;;;15.30;8.60;;;;;;;3.43;60.59;100208.54;107867;1291;21995;-65
2023/02/04 02:33:29;;;;;;;17.20;9.80;;;;;;;3.29;60.55;100204.16;107791;1291;21995;-61
2023/02/04 02:35:55;;;;;;;14.60;8.20;;;;;;;3.17;60.60;100199.14;107748;1291;22004;-66
2023/02/04 02:38:21;;;;;;;14.10;8.00;;;;;;;3.10;60.66;100198.34;107807;1289;21991;-65
2023/02/04 02:40:47;;;;;;;14.50;8.20;;;;;;;3.05;60.70;100196.54;108023;1290;21987;-66
2023/02/04 02:43:14;;;;;;;13.20;7.40;;;;;;;3.00;60.73;100198.19;108086;1290;21995;-65
2023/02/04 02:45:40;;;;;;;15.50;9.00;;;;;;;2.93;60.88;100196.52;107944;1290;22007;-61
2023/02/04 02:48:05;;;;;;;11.50;7.40;;;;;;;2.89;60.97;100196.63;107843;1290;21992;-61
2023/02/04 02:50:31;;;;;;;13.70;7.20;;;;;;;2.87;60.95;100198.16;107771;1290;21999;-61
2023/02/04 02:52:57;;;;;;;9.00;6.30;;;;;;;2.87;61.19;100194.68;107837;1290;22075;-65
2023/02/04 02:55:24;;;;;;;12.80;6.80;;;;;;;2.87;61.04;100197.29;107750;1290;21995;-62
2023/02/04 02:57:50;;;;;;;13.80;7.30;;;;;;;2.85;60.97;100195.88;107915;1290;22007;-65
2023/02/04 03:00:17;;;;;;;14.10;7.80;;;;;;;2.83;60.95;100192.89;107009;1291;1002664;-62
2023/02/04 03:02:44;;;;;;;14.80;8.00;;;;;;;2.79;60.81;100191.63;107729;1291;21990;-65
2023/02/04 03:05:10;;;;;;;12.50;6.60;;;;;;;2.75;60.61;100189.80;107705;1291;21996;-62
2023/02/04 03:07:36;;;;;;;10.40;6.40;;;;;;;2.69;60.64;100190.06;107726;1291;21992;-66
2023/02/04 03:10:02;;;;;;;11.00;7.10;;;;;;;2.65;60.53;100187.05;107722;1290;21957;-63
2023/02/04 03:12:29;;;;;;;11.70;6.90;;;;;;;2.61;60.51;100183.86;107804;1290;21997;-67
2023/02/04 03:14:55;;;;;;;12.00;6.90;;;;;;;2.58;60.57;100182.26;107841;1290;21994;-65
2023/02/04 03:17:21;;;;;;;14.10;7.10;;;;;;;2.56;60.73;100182.73;107776;1290;22005;-62
2023/02/04 03:19:47;;;;;;;11.20;6.20;;;;;;;2.56;60.72;100182.23;107035;1290;1002046;-65
2023/02/04 03:22:13;;;;;;;10.90;6.10;;;;;;;2.57;60.76;100183.80;107134;1289;1002354;-61
2023/02/04 03:24:39;;;;;;;13.90;6.30;;;;;;;2.58;60.82;100182.94;107893;1290;21990;-62
2023/02/04 03:27:06;;;;;;;17.70;7.80;;;;;;;2.56;60.83;100179.45;107759;1291;21988;-61
2023/02/04 03:29:32;;;;;;;12.80;6.60;;;;;;;2.54;60.74;100178.53;107707;1291;22134;-62
2023/02/04 03:31:58;;;;;;;9.50;5.90;;;;;;;2.51;60.62;100177.11;107769;1291;22032;-65
2023/02/04 03:34:24;;;;;;;12.90;6.30;;;;;;;2.48;60.63;100174.64;107726;1287;21996;-66
2023/02/04 03:36:50;;;;;;;10.10;6.30;;;;;;;2.48;60.64;100174.98;107792;1286;21990;-66
2023/02/04 03:39:16;;;;;;;10.50;6.20;;;;;;;2.48;60.50;100174.81;107693;1290;22097;-65
2023/02/04 03:41:46;;;;;;;11.90;6.40;;;;;;;2.49;60.47;100175.02;107703;1290;21992;-65
2023/02/04 03:44:13;;;;;;;12.00;6.90;;;;;;;2.50;60.53;100174.16;107698;1290;21987;-66
2023/02/04 03:46:39;;;;;;;10.00;6.00;;;;;;;2.53;60.51;100173.85;107755;1283;21999;-60
2023/02/04 03:49:05;;;;;;;11.50;6.20;;;;;;;2.56;60.51;100172.16;107669;1290;21996;-63
2023/02/04 03:51:32;;;;;;;10.90;5.70;;;;;;;2.55;60.59;100168.17;107666;1290;21993;-66
2023/02/04 03:53:58;;;;;;;9.40;5.80;;;;;;;2.52;60.64;100168.81;107108;1289;1002141;-63
2023/02/04 03:56:23;;;;;;;9.00;5.50;;;;;;;2.49;60.88;100170.31;107093;1290;1002575;-66
2023/02/04 03:58:49;;;;;;;12.90;7.10;;;;;;;2.49;60.94;100166.15;107061;1286;1003366;-61
2023/02/04 04:01:15;;;;;;;10.50;5.80;;;;;;;2.49;60.84;100159.58;107227;1287;1002602;-61
2023/02/04 04:03:40;;;;;;;13.00;6.70;;;;;;;2.49;60.91;100156.13;107066;1290;1002459;-61
2023/02/04 04:06:08;;;;;;;11.60;6.10;;;;;;;2.51;61.20;100156.50;106927;1290;1003125;-61
2023/02/04 04:08:35;;;;;;;9.20;5.90;;;;;;;2.55;61.63;100156.57;107721;1290;21986;-62
2023/02/04 04:11:01;;;;;;;11.60;6.70;;;;;;;2.59;61.73;100151.09;107760;1290;21990;-65
2023/02/04 04:13:29;;;;;;;10.20;6.50;;;;;;;2.61;61.89;100149.23;107687;1290;21995;-66
2023/02/04 04:15:55;;;;;;;13.40;6.40;;;;;;;2.74;61.96;100143.70;106937;1290;1003190;-63
2023/02/04 04:18:21;;;;;;;12.70;7.00;;;;;;;2.81;61.71;100139.33;107757;1290;21994;-62
2023/02/04 04:20:47;;;;;;;9.50;6.40;;;;;;;2.86;61.75;100142.85;107168;1289;1002562;-67
2023/02/04 04:23:12;;;;;;;14.40;6.10;;;;;;;2.90;61.61;100142.90;108007;1290;22035;-63
2023/02/04 04:25:39;;;;;;;15.30;6.00;;;;;;;2.93;61.62;100141.23;107805;1286;22022;-66
2023/02/04 04:28:05;;;;;;;19.10;6.40;;;;;;;3.05;62.91;100141.22;107759;1290;22074;-65
2023/02/04 04:30:31;;;;;;;17.60;6.30;;;;;;;3.16;63.24;100138.77;107813;1291;21996;-66
2023/02/04 04:32:57;;;;;;;12.10;6.60;;;;;;;3.18;63.21;100141.41;108011;1290;22004;-66
2023/02/04 04:35:23;;;;;;;12.30;6.60;;;;;;;3.21;63.07;100141.45;106984;1290;1003228;-63
2023/02/04 04:37:49;;;;;;;11.90;6.90;;;;;;;3.25;63.18;100142.04;107736;1290;22004;-63
2023/02/04 04:40:14;;;;;;;18.30;7.30;;;;;;;3.30;63.20;100141.41;107731;1282;21993;-65
2023/02/04 04:42:41;;;;;;;26.10;8.30;;;;;;;3.37;63.69;100139.95;107741;1290;22002;-66
2023/02/04 04:45:08;;;;;;;19.00;9.00;;;;;;;3.49;64.30;100142.88;107741;1285;21987;-66
2023/02/04 04:47:34;;;;;;;15.60;8.20;;;;;;;3.61;64.53;100147.35;107792;1290;22084;-62
2023/02/04 04:50:00;;;;;;;12.90;6.70;;;;;;;3.68;64.01;100147.78;107714;1290;21988;-62
2023/02/04 04:52:25;;;;;;;9.80;5.60;;;;;;;3.70;63.46;100150.93;107846;1290;22047;-62
2023/02/04 04:54:51;;;;;;;11.00;6.40;;;;;;;3.68;63.19;100155.08;107922;1284;21990;-66
2023/02/04 04:57:17;;;;;;;10.30;6.30;;;;;;;3.67;62.94;100155.94;107762;1290;22007;-66
2023/02/04 04:59:42;;;;;;;10.00;6.10;;;;;;;3.65;62.77;100157.45;108010;1290;22024;-64
2023/02/04 05:02:08;;;;;;;11.40;6.90;;;;;;;3.62;62.71;100158.63;107933;1287;21996;-62
2023/02/04 05:04:34;;;;;;;13.20;6.30;;;;;;;3.61;62.77;100157.58;106910;1291;1002452;-62
2023/02/04 05:07:00;;;;;;;11.60;6.10;;;;;;;3.63;62.87;100159.52;107798;1291;21986;-66
2023/02/04 05:09:26;;;;;;;9.80;6.60;;;;;;;3.64;63.07;100158.67;107049;1290;1002538;-63
2023/02/04 05:11:52;;;;;;;10.70;6.50;;;;;;;3.65;62.92;100158.86;108024;1290;21996;-62
2023/02/04 05:14:19;;;;;;;9.80;6.50;;;;;;;3.67;63.13;100158.01;107778;1290;21990;-66
2023/02/04 05:16:45;;;;;;;9.90;5.50;;;;;;;3.69;63.18;100160.47;106966;1290;1003011;-66
2023/02/04 05:19:11;;;;;;;9.20;5.30;;;;;;;3.87;63.11;100160.16;107753;1290;22028;-63
2023/02/04 05:21:37;;;;;;;8.80;4.90;;;;;;;4.02;62.71;100163.45;107798;1290;21988;-65
2023/02/04 05:24:05;;;;;;;9.00;5.90;;;;;;;4.10;62.61;100163.71;107887;1283;21989;-62
2023/02/04 05:26:32;;;;;;;8.10;5.50;;;;;;;4.17;62.39;100164.14;107167;1290;1002284;-66
2023/02/04 05:29:01;;;;;;;11.30;5.90;;;;;;;4.24;62.45;100164.36;107988;1290;22009;-62
2023/02/04 05:31:27;;;;;;;9.00;5.20;;;;;;;4.26;62.47;100163.88;107947;1291;22073;-66
2023/02/04 05:33:53;;;;;;;10.50;5.50;;;;;;;4.28;62.85;100168.23;107722;1291;22006;-66
2023/02/04 05:36:19;;;;;;;9.20;5.80;;;;;;;4.35;62.94;100168.13;107699;1283;23840;-63
2023/02/04 05:38:45;;;;;;;9.60;6.20;;;;;;;4.39;62.90;100168.16;107834;1291;21996;-62
2023/02/04 05:41:10;;;;;;;9.30;5.80;;;;;;;4.43;63.19;100168.89;107645;1290;22027;-67
2023/02/04 05:43:37;;;;;;;8.20;5.40;;;;;;;4.49;63.31;100173.81;107682;1291;22012;-62
2023/02/04 05:46:03;;;;;;;8.20;4.80;;;;;;;4.56;63.27;100174.40;107916;1290;21993;-67
2023/02/04 05:48:28;;;;;;;8.10;5.40;;;;;;;4.62;63.31;100178.29;108070;1290;22003;-67
2023/02/04 05:50:55;;;;;;;9.80;5.70;;;;;;;4.68;63.61;100176.92;107759;1291;21998;-67
2023/02/04 05:53:20;;;;;;;11.60;6.60;;;;;;;4.73;63.60;100173.67;107670;1291;21996;-66
2023/02/04 05:55:46;;;;;;;10.20;6.00;;;;;;;4.78;63.53;100173.38;107639;1291;21979;-64
2023/02/04 05:58:12;;;;;;;8.60;5.70;;;;;;;4.83;63.46;100173.24;107636;1291;22002;-66
2023/02/04 06:00:39;;;;;;;13.80;6.70;;;;;;;4.88;63.42;100173.09;107694;1290;21992;-62
2023/02/04 06:03:05;;;;;;;11.80;6.70;;;;;;;4.92;63.63;100170.70;107702;1290;22002;-62
2023/02/04 06:05:31;;;;;;;12.90;7.00;;;;;;;4.96;63.54;100173.86;107705;1290;21983;-63
2023/02/04 06:07:57;;;;;;;10.70;5.70;;;;;;;5.00;63.77;100173.90;107749;1290;22032;-63
2023/02/04 06:10:22;;;;;;;9.60;5.20;;;;;;;5.06;63.73;100173.59;107909;1290;22005;-67
2023/02/04 09:44:26;;;;;;;8.00;4.40;;;;;;;4.07;100.00;100206.06;107447;1288;547986;-62
2023/02/04 09:46:53;;;;;;;8.10;4.00;;;;;;;7.30;91.86;100191.23;107441;1295;21985;-69
2023/02/04 09:49:19;;;;;;;5.40;3.70;;;;;;;7.88;84.32;100192.64;107566;1295;22034;-68
2023/02/04 09:51:45;;;;;;;6.70;3.70;;;;;;;8.02;82.02;100191.55;107500;1295;22009;-63
2023/02/04 09:54:16;;;;;;;6.10;3.20;;;;;;;8.27;80.08;100190.02;107473;1295;21997;-70
2023/02/04 09:56:42;;;;;;;5.00;3.10;;;;;;;8.44;78.27;100192.70;107511;1291;414020;-69
2023/02/04 09:59:19;;;;;;;5.90;2.30;;;;;;;8.53;77.11;100194.25;107669;1291;23417;-62
2023/02/04 10:01:54;;;;;;;4.90;2.70;;;;;;;8.64;76.29;100190.67;107654;1286;21999;-62
2023/02/04 10:04:20;;;;;;;4.30;2.50;;;;;;;8.73;75.37;100190.96;107896;1291;23101;-69
2023/02/04 10:06:46;;;;;;;4.80;2.70;;;;;;;8.78;74.70;100187.60;107797;1291;21995;-62
2023/02/04 10:09:12;;;;;;;5.40;2.80;;;;;;;8.81;74.17;100188.28;108059;1290;21993;-62
2023/02/04 10:11:38;;;;;;;5.80;3.50;;;;;;;8.79;73.74;100185.84;107831;1290;23159;-62
2023/02/04 10:14:05;;;;;;;6.80;3.50;;;;;;;8.82;73.45;100191.42;107692;1291;23625;-62
2023/02/04 10:16:32;;;;;;;7.60;3.40;;;;;;;8.84;73.08;100186.32;107737;1291;21998;-70
2023/02/04 10:19:00;;;;;;;5.10;3.00;;;;;;;8.85;72.62;100185.44;107823;1281;21975;-62
2023/02/04 10:21:28;;;;;;;4.60;3.00;;;;;;;8.88;72.57;100181.91;107713;1290;21993;-62
2023/02/04 10:23:56;;;;;;;5.60;3.30;;;;;;;8.96;72.25;100180.45;107919;1289;21994;-62
2023/02/04 10:26:25;;;;;;;5.90;3.30;;;;;;;9.00;71.79;100183.74;107933;1290;22470;-70
2023/02/04 10:29:00;;;;;;;6.40;3.20;;;;;;;9.03;71.57;100183.02;107882;1290;22005;-70
2023/02/04 10:31:37;;;;;;;5.20;3.10;;;;;;;9.07;71.40;100182.44;107759;1290;21993;-70
2023/02/04 10:34:08;;;;;;;4.80;2.90;;;;;;;9.07;71.41;100184.20;107828;1289;22041;-62
2023/02/04 10:36:35;;;;;;;5.10;3.20;;;;;;;9.10;70.97;100182.07;107921;1290;23277;-67
2023/02/04 10:39:08;;;;;;;6.90;3.50;;;;;;;9.11;70.75;100185.21;107080;1290;1003816;-62
2023/02/04 10:41:37;;;;;;;5.60;3.30;;;;;;;9.12;70.57;100188.87;107646;1279;21998;-63
2023/02/04 10:44:05;;;;;;;5.40;3.40;;;;;;;9.11;70.69;100186.44;107695;1291;22002;-70
2023/02/04 10:46:32;;;;;;;5.10;3.40;;;;;;;9.09;71.17;100185.92;107667;1291;22017;-62
2023/02/04 10:48:59;;;;;;;6.00;3.70;;;;;;;9.14;71.41;100185.70;107855;1290;22002;-62
2023/02/04 10:51:25;;;;;;;5.30;3.20;;;;;;;9.20;71.33;100190.55;107841;1290;22013;-70
2023/02/04 10:56:36;;;;;;;7.20;3.50;;;;;;;9.30;71.10;100192.90;107838;1290;21994;-62
2023/02/04 10:59:02;;;;;;;7.20;4.20;;;;;;;9.32;70.63;100196.04;107765;1290;22004;-71
2023/02/04 11:01:28;;;;;;;7.10;4.00;;;;;;;9.32;70.64;100195.34;107616;1287;22002;-70
2023/02/04 11:03:53;;;;;;;16.70;8.10;;;;;;;9.37;70.26;100193.72;107788;1291;21999;-71
2023/02/04 11:06:21;;;;;;;11.60;6.00;;;;;;;9.37;69.75;100197.56;107644;1283;21997;-72
2023/02/04 11:08:47;;;;;;;8.00;4.30;;;;;;;9.32;69.64;100197.08;107759;1290;21999;-63
2023/02/04 11:11:24;;;;;;;6.60;3.80;;;;;;;9.31;69.68;100196.92;107657;1290;22065;-71
2023/02/04 11:13:50;;;;;;;5.80;3.50;;;;;;;9.33;69.83;100195.34;107805;1279;22009;-71
2023/02/04 11:16:29;;;;;;;6.80;3.70;;;;;;;9.36;69.74;100198.27;107853;1290;22001;-65
2023/02/04 11:19:04;;;;;;;6.00;3.50;;;;;;;9.37;69.43;100200.71;107930;1291;21995;-64
2023/02/04 11:21:31;;;;;;;6.30;4.00;;;;;;;9.35;69.19;100199.17;107881;1291;23760;-70
2023/02/04 11:24:08;;;;;;;8.00;3.80;;;;;;;9.31;69.02;100198.67;107629;1291;22010;-63
2023/02/04 11:26:37;;;;;;;;;;;;;;;9.28;68.92;100196.77;107665;1291;22913;-70
2023/02/04 11:29:03;;;;;;;5.00;2.90;;;;;;;9.28;68.83;100196.26;107821;1290;21996;-62
2023/02/04 11:31:33;;;;;;;5.00;3.10;;;;;;;9.28;68.94;100191.88;107815;1290;21996;-62
2023/02/04 11:34:11;;;;;;;5.60;3.50;;;;;;;9.24;69.07;100189.98;107785;1290;22031;-63
2023/02/04 11:36:59;;;;;;;6.20;3.40;;;;;;;9.22;69.05;100195.27;107867;1290;22013;-70
2023/02/04 11:39:31;;;;;;;5.20;3.30;;;;;;;9.26;68.72;100197.67;107905;1290;22004;-70
2023/02/04 11:42:00;;;;;;;5.50;3.30;;;;;;;9.28;68.55;100199.22;107841;1285;22008;-62
2023/02/04 11:44:26;;;;;;;4.70;3.60;;;;;;;9.26;68.17;100202.93;107823;1290;21993;-63
2023/02/04 11:46:55;;;;;;;6.10;3.10;;;;;;;9.21;68.27;100201.40;107699;1286;22006;-62
2023/02/04 11:49:22;;;;;;;5.30;3.20;;;;;;;9.21;68.31;100200.17;107796;1289;22005;-70
2023/02/04 11:51:48;;;;;;;7.10;3.30;;;;;;;9.20;68.35;100198.79;107866;1290;22003;-62
2023/02/04 11:54:17;;;;;;;5.30;3.10;;;;;;;9.14;68.69;100201.13;107807;1290;22000;-71
2023/02/04 11:56:45;;;;;;;6.30;3.20;;;;;;;9.16;68.47;100204.95;107723;1290;21993;-62
2023/02/04 11:59:11;;;;;;;5.20;3.10;;;;;;;9.17;68.35;100204.05;107699;1291;22008;-63
2023/02/04 12:01:37;;;;;;;6.30;3.40;;;;;;;9.13;68.13;100206.20;107738;1280;22076;-62
2023/02/04 12:04:21;;;;;;;5.30;3.10;;;;;;;9.02;68.42;100207.69;107651;1291;21991;-70
2023/02/04 12:06:56;;;;;;;6.70;3.40;;;;;;;9.00;68.33;100207.02;107862;1290;21997;-71
2023/02/04 12:09:24;;;;;;;5.10;3.10;;;;;;;8.98;68.32;100207.39;107826;1290;22001;-62
2023/02/04 12:11:52;;;;;;;5.90;3.20;;;;;;;8.93;68.34;100211.45;107844;1279;21993;-62
2023/02/04 12:14:20;;;;;;;4.50;2.50;;;;;;;8.93;68.41;100216.35;107830;1290;24342;-70
2023/02/04 12:16:47;;;;;;;5.80;3.00;;;;;;;8.96;68.22;100212.13;107609;1291;23796;-63
2023/02/04 12:19:17;;;;;;;7.30;2.90;;;;;;;8.93;68.42;100216.70;107802;1291;22000;-62
2023/02/04 12:21:42;;;;;;;5.00;3.10;;;;;;;8.94;68.41;100218.09;107662;1291;21996;-70
2023/02/04 12:24:08;;;;;;;5.10;2.80;;;;;;;8.95;68.17;100220.52;106894;1291;1003239;-72
2023/02/04 12:26:34;;;;;;;4.70;2.70;;;;;;;8.96;68.06;100220.69;107659;1290;22004;-70
2023/02/04 12:29:02;;;;;;;8.30;2.80;;;;;;;8.97;67.88;100221.05;107642;1290;22006;-71
2023/02/04 12:31:28;;;;;;;4.60;2.60;;;;;;;9.00;67.64;100218.75;107667;1291;22003;-62
2023/02/04 12:33:54;;;;;;;4.40;2.50;;;;;;;8.99;67.72;100220.50;107652;1290;21994;-71
2023/02/04 12:36:20;;;;;;;5.10;2.30;;;;;;;9.00;67.82;100218.39;107828;1290;21963;-65
2023/02/04 12:38:46;;;;;;;5.90;2.40;;;;;;;9.00;68.00;100219.10;107841;1290;22002;-61
2023/02/04 12:41:12;;;;;;;5.50;2.80;;;;;;;9.02;67.92;100219.25;107806;1290;22459;-62
2023/02/04 12:43:38;;;;;;;4.40;2.60;;;;;;;9.02;68.08;100221.87;107857;1290;22001;-61
2023/02/04 12:46:03;;;;;;;5.80;2.30;;;;;;;9.04;68.13;100217.83;107657;1290;22015;-63
2023/02/04 12:48:29;;;;;;;5.50;2.90;;;;;;;9.06;68.06;100218.34;107865;1290;22005;-63
2023/02/04 12:50:55;;;;;;;5.30;2.60;;;;;;;9.10;67.81;100222.34;107874;1280;22000;-63
2023/02/04 12:53:21;;;;;;;8.90;3.40;;;;;;;9.15;68.64;100225.27;107791;1290;22002;-69
2023/02/04 12:55:47;;;;;;;4.30;2.60;;;;;;;9.26;70.06;100228.84;107666;1287;21965;-64
2023/02/04 12:58:13;;;;;;;6.20;2.50;;;;;;;9.35;69.43;100234.36;108124;1290;23428;-61
2023/02/04 13:00:39;;;;;;;4.60;2.70;;;;;;;9.39;68.67;100233.09;107836;1290;21992;-70
2023/02/04 13:03:06;;;;;;;5.20;2.90;;;;;;;9.41;68.29;100234.48;107766;1290;22458;-71
2023/02/04 13:05:32;;;;;;;6.60;3.50;;;;;;;9.44;68.31;100233.23;107798;1290;21996;-71
2023/02/04 13:07:58;;;;;;;5.60;2.80;;;;;;;9.44;68.09;100234.79;106957;1290;1002239;-70
2023/02/04 13:10:24;;;;;;;5.00;2.70;;;;;;;9.45;67.79;100235.14;107790;1290;23715;-63
2023/02/04 13:12:50;;;;;;;4.00;2.70;;;;;;;9.42;67.81;100235.34;107743;1290;24375;-72
2023/02/04 13:15:16;;;;;;;4.20;2.60;;;;;;;9.42;67.92;100239.73;107718;1290;21996;-64
2023/02/04 13:17:42;;;;;;;4.30;2.40;;;;;;;9.46;67.96;100241.42;107759;1290;21999;-62
2023/02/04 13:20:11;;;;;;;4.40;2.90;;;;;;;9.51;67.99;100241.73;107684;1290;21998;-71
2023/02/04 13:22:38;;;;;;;5.70;2.70;;;;;;;9.51;68.02;100246.45;107830;1286;21992;-62
2023/02/04 13:25:05;;;;;;;5.90;3.40;;;;;;;9.52;68.00;100247.67;107680;1290;23727;-71
2023/02/04 13:27:31;;;;;;;6.10;3.10;;;;;;;9.55;67.51;100246.95;107751;1290;22000;-62
2023/02/04 13:29:57;;;;;;;5.20;2.50;;;;;;;9.58;67.31;100246.74;107668;1290;21991;-64
2023/02/04 13:32:23;;;;;;;7.50;2.90;;;;;;;9.60;67.61;100249.00;107684;1290;22005;-72
2023/02/04 13:34:52;;;;;;;9.00;2.90;;;;;;;9.60;67.76;100253.20;107772;1290;21997;-72
2023/02/04 13:37:18;;;;;;;5.10;3.40;;;;;;;9.59;68.13;100254.27;108024;1288;22006;-73
2023/02/04 13:39:44;;;;;;;12.00;7.00;;;;;;;9.59;67.49;100257.08;107791;1290;22009;-64
2023/02/04 13:42:10;;;;;;;12.80;6.10;;;;;;;9.60;67.62;100260.91;107788;1290;23853;-70
2023/02/04 13:44:36;;;;;;;9.70;4.40;;;;;;;9.60;67.83;100260.39;107693;1290;22057;-64
2023/02/04 13:47:02;;;;;;;10.10;5.80;;;;;;;9.57;68.09;100261.46;107685;1290;22207;-71
2023/02/04 13:49:27;;;;;;;8.50;4.30;;;;;;;9.54;68.23;100260.44;107675;1290;21993;-71
2023/02/04 13:51:53;;;;;;;12.40;4.10;;;;;;;9.53;68.32;100259.23;107701;1290;22000;-64
2023/02/04 13:54:19;;;;;;;12.80;5.70;;;;;;;9.52;68.07;100260.64;107654;1290;22071;-70
2023/02/04 13:56:45;;;;;;;13.70;7.00;;;;;;;9.56;67.99;100265.16;107699;1290;22010;-70
2023/02/04 13:59:11;;;;;;;11.90;6.30;;;;;;;9.57;67.95;100269.35;107691;1290;22116;-64
2023/02/04 14:01:37;;;;;;;14.10;6.30;;;;;;;9.56;67.68;100271.98;107677;1290;21996;-70
2023/02/04 14:04:03;;;;;;;14.70;5.30;;;;;;;9.46;67.62;100273.83;107693;1290;22217;-69
2023/02/04 14:06:32;;;;;;;7.90;4.50;;;;;;;9.28;68.10;100276.63;107705;1290;22012;-63
2023/02/04 14:09:01;;;;;;;8.60;4.40;;;;;;;9.20;68.21;100275.63;107164;1290;1006219;-63
2023/02/04 14:11:27;;;;;;;9.50;3.90;;;;;;;9.13;68.47;100280.07;107776;1284;21990;-69
2023/02/04 14:13:53;;;;;;;8.20;5.60;;;;;;;9.09;68.52;100280.45;107859;1290;22010;-62
2023/02/04 14:16:19;;;;;;;12.90;8.50;;;;;;;9.05;67.87;100286.27;108051;1289;22001;-71
2023/02/04 14:18:45;;;;;;;8.10;5.00;;;;;;;9.03;68.12;100289.09;107943;1290;22007;-72
2023/02/04 14:21:11;;;;;;;7.00;4.30;;;;;;;9.01;67.62;100290.48;107762;1290;22005;-63
2023/02/04 14:23:36;;;;;;;7.60;3.90;;;;;;;8.97;66.87;100298.73;107801;1290;23112;-62
2023/02/04 14:26:02;;;;;;;5.90;3.50;;;;;;;8.87;66.56;100303.54;107695;1282;23078;-72
2023/02/04 14:28:28;;;;;;;5.80;3.50;;;;;;;8.78;66.66;100305.51;106970;1290;1003227;-71
2023/02/04 14:30:54;;;;;;;7.30;3.00;;;;;;;8.74;66.75;100308.68;107717;1290;21997;-62
2023/02/04 14:33:20;;;;;;;7.10;3.10;;;;;;;8.68;67.02;100311.34;107750;1290;21980;-61
2023/02/04 14:35:46;;;;;;;8.20;3.00;;;;;;;8.69;66.97;100314.83;107714;1290;23618;-71
2023/02/04 14:38:14;;;;;;;5.10;3.40;;;;;;;8.68;67.08;100316.25;107679;1290;21996;-62
2023/02/04 14:40:41;;;;;;;4.80;2.70;;;;;;;8.67;66.89;100318.52;107681;1290;23621;-71
2023/02/04 14:43:09;;;;;;;4.20;2.30;;;;;;;8.66;66.66;100321.15;107750;1290;21998;-62
2023/02/04 14:45:36;;;;;;;5.10;2.50;;;;;;;8.64;66.85;100325.89;107980;1290;23064;-70
2023/02/04 14:48:03;;;;;;;5.10;3.00;;;;;;;8.62;66.84;100329.38;107100;1290;1002635;-72
2023/02/04 14:50:29;;;;;;;6.80;3.40;;;;;;;8.60;66.75;100330.45;106954;1290;1003010;-63
2023/02/04 14:52:55;;;;;;;8.60;3.20;;;;;;;8.56;66.87;100331.52;107839;1283;22007;-62